Time;durP1;ratioP1;P1;durP2;ratioP2;P2;SDS_P1;SDS_P2;PMS_P1;PMS_P2;Temp;Humidity;BMP_temperature;BMP_pressure;BME280_temperature;BME280_humidity;BME280_pressure;Samples;Min_cycle;Max_cycle;Signal;HPM_P1;HPM_P2
2020/12/01 05:30:26;;;;;;;1999.90;999.90;;;3.60;99.90;;;;;;5927744;23;20168;-75
2020/12/01 05:32:58;;;;;;;1999.90;999.90;;;3.60;99.90;;;;;;4936466;29;20206;-74
2020/12/01 05:35:27;;;;;;;1999.90;999.90;;;3.60;99.90;;;;;;4936989;29;20206;-74
2020/12/01 05:38:00;;;;;;;1999.90;999.90;;;3.60;99.90;;;;;;4936618;29;20206;-76
2020/12/01 05:40:30;;;;;;;1999.90;999.90;;;3.60;99.90;;;;;;4940668;29;20233;-77
2020/12/01 05:42:57;;;;;;;1999.90;999.90;;;3.50;99.90;;;;;;4937083;29;20702;-77
2020/12/01 05:45:30;;;;;;;1999.90;999.90;;;3.50;99.90;;;;;;4938024;29;20292;-76
2020/12/01 05:48:09;;;;;;;1999.90;999.90;;;3.40;99.90;;;;;;4937827;29;20730;-77
2020/12/01 05:50:47;;;;;;;1999.90;999.90;;;3.40;99.90;;;;;;4937793;29;20640;-76
2020/12/01 05:53:18;;;;;;;1999.90;999.90;;;3.50;99.90;;;;;;4936891;29;20577;-77
2020/12/01 05:55:59;;;;;;;1999.90;999.90;;;3.50;99.90;;;;;;4937747;29;20206;-77
2020/12/01 05:58:36;;;;;;;1999.90;999.90;;;3.40;99.90;;;;;;4937634;29;20312;-77
2020/12/01 06:01:04;;;;;;;1999.90;999.90;;;3.40;99.90;;;;;;4936055;29;20652;-76
2020/12/01 06:03:44;;;;;;;1999.90;999.90;;;3.30;99.90;;;;;;4936027;29;20251;-79
2020/12/01 06:06:14;;;;;;;1999.90;999.90;;;3.30;99.90;;;;;;4922549;29;20211;-76
2020/12/01 06:08:48;;;;;;;1999.90;999.90;;;3.30;99.90;;;;;;4917001;29;20620;-77
2020/12/01 06:11:37;;;;;;;1999.90;999.90;;;3.30;99.90;;;;;;4920058;29;20226;-77
2020/12/01 06:14:15;;;;;;;1999.90;999.90;;;3.30;99.90;;;;;;4920765;29;20206;-78
2020/12/01 06:16:49;;;;;;;1999.90;999.90;;;3.40;99.90;;;;;;4919422;29;20274;-79
2020/12/01 06:19:24;;;;;;;1999.90;999.90;;;3.30;99.90;;;;;;4920660;29;20294;-79
2020/12/01 06:22:42;;;;;;;1999.90;999.90;;;3.30;99.90;;;;;;4918517;29;20234;-77
2020/12/01 06:25:35;;;;;;;1999.90;999.90;;;3.40;99.90;;;;;;4919014;29;20214;-77
2020/12/01 06:28:35;;;;;;;1999.90;999.90;;;3.40;99.90;;;;;;4918841;29;20266;-77
2020/12/01 06:31:25;;;;;;;1999.90;999.90;;;3.40;99.90;;;;;;4908697;29;20242;-77
2020/12/01 06:34:30;;;;;;;1999.90;999.90;;;3.40;99.90;;;;;;4918460;29;20202;-79
2020/12/01 06:37:23;;;;;;;1999.90;999.90;;;3.50;99.90;;;;;;4917901;29;20206;-76
2020/12/01 06:40:27;;;;;;;1999.90;999.90;;;3.60;99.90;;;;;;4917954;29;20223;-77
2020/12/01 06:43:01;;;;;;;1999.90;999.90;;;3.60;99.90;;;;;;4878801;29;20268;-77
2020/12/01 13:01:21;;;;;;;1999.90;999.90;;;5.90;99.90;;;;;;5481862;23;20229;-72
2020/12/01 13:03:49;;;;;;;1999.90;999.90;;;5.90;99.90;;;;;;4956561;29;20209;-72
2020/12/01 13:06:16;;;;;;;1999.90;999.90;;;5.80;99.90;;;;;;4956290;29;20205;-72
2020/12/01 13:08:43;;;;;;;1999.90;999.90;;;5.70;99.90;;;;;;4956368;29;20217;-72
2020/12/01 13:11:14;;;;;;;1999.90;999.90;;;5.70;99.90;;;;;;4956274;29;20273;-72
2020/12/01 13:13:41;;;;;;;1999.90;999.90;;;5.70;99.90;;;;;;4956923;29;20341;-73
2020/12/01 13:16:08;;;;;;;1999.90;999.90;;;5.70;99.90;;;;;;4956022;29;20260;-73
2020/12/01 13:18:36;;;;;;;1999.90;999.90;;;5.70;99.90;;;;;;4956459;29;20267;-73
2020/12/01 13:21:03;;;;;;;1999.90;999.90;;;5.70;99.90;;;;;;4956050;29;20329;-72
2020/12/01 13:23:30;;;;;;;1999.90;999.90;;;5.70;99.90;;;;;;4956080;29;20233;-74
2020/12/01 13:25:57;;;;;;;1999.90;999.90;;;5.60;99.90;;;;;;4955886;29;20670;-73
2020/12/01 13:28:24;;;;;;;1999.90;999.90;;;5.70;99.90;;;;;;4955912;29;20674;-72
2020/12/01 13:30:51;;;;;;;1999.90;999.90;;;5.70;99.90;;;;;;4955942;29;20221;-72
2020/12/01 13:33:18;;;;;;;1999.90;999.90;;;5.70;99.90;;;;;;4955522;28;20628;-72
2020/12/01 13:35:46;;;;;;;1999.90;999.90;;;5.80;99.90;;;;;;4955930;29;20209;-72
2020/12/01 13:38:13;;;;;;;1999.90;999.90;;;5.70;99.90;;;;;;4955822;29;20280;-74
2020/12/01 13:40:40;;;;;;;1999.90;999.90;;;5.70;99.90;;;;;;4955681;29;20230;-73
2020/12/01 13:43:07;;;;;;;1999.90;999.90;;;5.60;99.90;;;;;;4955955;29;20205;-74
2020/12/01 13:45:34;;;;;;;1999.90;999.90;;;5.50;99.90;;;;;;4955871;29;20205;-74
2020/12/01 13:48:01;;;;;;;1999.90;999.90;;;5.50;99.90;;;;;;4955677;29;20501;-74
2020/12/01 13:50:30;;;;;;;1999.90;999.90;;;5.50;99.90;;;;;;4955607;29;20257;-74
2020/12/01 13:52:59;;;;;;;1999.90;999.90;;;5.30;99.90;;;;;;4955502;29;20233;-74
2020/12/01 13:55:26;;;;;;;1999.90;999.90;;;5.30;99.90;;;;;;4955713;29;20260;-74
2020/12/01 13:57:53;;;;;;;1999.90;999.90;;;5.10;99.90;;;;;;4955265;29;20460;-73
2020/12/01 14:00:23;;;;;;;1999.90;999.90;;;5.30;99.90;;;;;;4955347;29;20229;-72
2020/12/01 14:02:50;;;;;;;1999.90;999.90;;;5.20;99.90;;;;;;4955666;29;20211;-73
2020/12/01 14:05:17;;;;;;;1999.90;999.90;;;5.10;99.90;;;;;;4955396;29;20201;-73
2020/12/01 14:07:44;;;;;;;1999.90;999.90;;;5.10;99.90;;;;;;4955373;29;20205;-73
2020/12/01 14:10:12;;;;;;;1999.90;999.90;;;5.00;99.90;;;;;;4955324;29;20201;-74
2020/12/01 14:12:39;;;;;;;1999.90;999.90;;;4.90;99.90;;;;;;4955386;29;20233;-74
2020/12/01 14:15:08;;;;;;;1999.90;999.90;;;4.80;99.90;;;;;;4955256;29;20212;-74
2020/12/01 14:17:35;;;;;;;1999.90;999.90;;;4.80;99.90;;;;;;4955043;29;20213;-74
2020/12/01 14:20:03;;;;;;;1999.90;999.90;;;4.70;99.90;;;;;;4954963;29;20578;-74
2020/12/01 14:22:34;;;;;;;1999.90;999.90;;;4.70;99.90;;;;;;4955290;29;20221;-75
2020/12/01 14:25:02;;;;;;;1999.90;999.90;;;4.70;99.90;;;;;;4955196;29;20333;-74
2020/12/01 14:27:29;;;;;;;1999.90;999.90;;;4.60;99.90;;;;;;4954760;29;20240;-74
2020/12/01 14:29:57;;;;;;;1999.90;999.90;;;4.70;99.90;;;;;;4954877;29;20201;-74
2020/12/01 14:32:24;;;;;;;1999.90;999.90;;;4.70;99.90;;;;;;4954846;29;20574;-74
2020/12/01 14:34:51;;;;;;;1999.90;999.90;;;4.50;99.90;;;;;;4954995;29;20264;-73
2020/12/01 14:37:18;;;;;;;1999.90;999.90;;;4.50;99.90;;;;;;4953150;29;20209;-73
2020/12/01 14:39:47;;;;;;;1999.90;999.90;;;4.50;99.90;;;;;;4953390;28;20213;-74
2020/12/01 14:42:18;;;;;;;1999.90;999.90;;;4.40;99.90;;;;;;4954342;29;20225;-73
2020/12/01 14:44:46;;;;;;;1999.90;999.90;;;4.40;99.90;;;;;;4953458;28;20268;-74
2020/12/01 14:47:42;;;;;;;1999.90;999.90;;;4.40;99.90;;;;;;4954623;29;20206;-74
2020/12/01 14:50:35;;;;;;;1999.90;999.90;;;4.30;99.90;;;;;;4917944;29;20205;-73
2020/12/01 14:53:10;;;;;;;1999.90;999.90;;;4.30;99.90;;;;;;4956865;28;20419;-74
2020/12/01 14:55:59;;;;;;;1999.90;999.90;;;4.40;99.90;;;;;;4971993;28;20672;-72
2020/12/01 14:58:55;;;;;;;1999.90;999.90;;;4.40;99.90;;;;;;4929471;28;20205;-74
2020/12/01 15:01:33;;;;;;;1999.90;999.90;;;4.40;99.90;;;;;;4932271;28;20244;-73
2020/12/01 15:04:15;;;;;;;1999.90;999.90;;;4.40;99.90;;;;;;4971776;28;20616;-73
2020/12/01 15:07:06;;;;;;;1999.90;999.90;;;4.30;99.90;;;;;;4972477;28;20624;-74
2020/12/01 15:09:54;;;;;;;1999.90;999.90;;;4.10;99.90;;;;;;4973494;28;20259;-74
2020/12/01 15:12:38;;;;;;;1999.90;999.90;;;4.20;99.90;;;;;;4973201;28;20225;-75
2020/12/01 15:15:08;;;;;;;1999.90;999.90;;;4.10;99.90;;;;;;4958331;28;20259;-72
2020/12/01 15:17:37;;;;;;;1999.90;999.90;;;4.00;99.90;;;;;;4952505;28;20209;-75
2020/12/01 15:20:09;;;;;;;1999.90;999.90;;;4.00;99.90;;;;;;4953203;29;20233;-73
2020/12/01 15:22:43;;;;;;;1999.90;999.90;;;3.90;99.90;;;;;;4953588;29;20284;-74
2020/12/01 15:25:15;;;;;;;1999.90;999.90;;;3.90;99.90;;;;;;4953846;29;20239;-74
2020/12/01 15:27:43;;;;;;;1999.90;999.90;;;3.90;99.90;;;;;;4953433;29;20679;-76
2020/12/01 15:30:15;;;;;;;1999.90;999.90;;;3.90;99.90;;;;;;4953618;29;20213;-74
2020/12/01 15:32:43;;;;;;;1999.90;999.90;;;3.90;99.90;;;;;;4953716;29;20241;-74
2020/12/01 15:35:18;;;;;;;1999.90;999.90;;;3.90;99.90;;;;;;4953388;29;20262;-74
2020/12/01 15:37:47;;;;;;;1999.90;999.90;;;4.00;99.90;;;;;;4953599;29;20267;-74
2020/12/01 15:40:46;;;;;;;1999.90;999.90;;;3.90;99.90;;;;;;4953484;29;20249;-74
2020/12/01 15:43:17;;;;;;;1999.90;999.90;;;3.80;99.90;;;;;;4953489;29;20205;-76
2020/12/01 15:45:44;;;;;;;1999.90;999.90;;;3.80;99.90;;;;;;4953631;29;20256;-75
2020/12/01 15:48:14;;;;;;;1999.90;999.90;;;3.90;99.90;;;;;;4953464;29;20268;-73
2020/12/01 15:50:41;;;;;;;1999.90;999.90;;;3.80;99.90;;;;;;4953697;29;20601;-73
2020/12/01 15:53:27;;;;;;;1999.90;999.90;;;3.80;99.90;;;;;;4953543;29;20201;-73
2020/12/01 15:56:03;;;;;;;1999.90;999.90;;;3.70;99.90;;;;;;4954725;28;20208;-76
2020/12/01 15:59:09;;;;;;;1999.90;999.90;;;3.70;99.90;;;;;;4957689;29;20212;-75
2020/12/01 16:01:48;;;;;;;1999.90;999.90;;;3.60;99.90;;;;;;4957028;29;20228;-75
2020/12/01 16:04:56;;;;;;;1999.90;999.90;;;3.60;99.90;;;;;;4957197;29;20689;-74
2020/12/01 16:07:35;;;;;;;1999.90;999.90;;;3.50;99.90;;;;;;4957009;29;20208;-74
2020/12/01 16:10:22;;;;;;;1999.90;999.90;;;3.50;99.90;;;;;;4957295;29;20209;-76
2020/12/01 16:13:14;;;;;;;1999.90;999.90;;;3.50;99.90;;;;;;4957443;29;20629;-75
2020/12/01 16:15:53;;;;;;;1999.90;999.90;;;3.50;99.90;;;;;;4957238;29;20295;-76
2020/12/01 16:18:27;;;;;;;1999.90;999.90;;;3.40;99.90;;;;;;4957104;29;20213;-75
2020/12/01 16:21:19;;;;;;;1999.90;999.90;;;3.50;99.90;;;;;;4957233;29;20284;-77
2020/12/01 16:23:50;;;;;;;1999.90;999.90;;;3.50;99.90;;;;;;4957431;29;20662;-77
2020/12/01 16:26:35;;;;;;;1999.90;999.90;;;3.50;99.90;;;;;;4957254;29;20213;-76
2020/12/01 16:29:17;;;;;;;1999.90;999.90;;;3.50;99.90;;;;;;4953923;29;20268;-74
2020/12/01 16:31:46;;;;;;;1999.90;999.90;;;3.50;99.90;;;;;;4956813;29;20229;-74
2020/12/01 16:34:15;;;;;;;1999.90;999.90;;;3.50;99.90;;;;;;4949921;29;20206;-71
2020/12/01 16:36:59;;;;;;;1999.90;999.90;;;3.50;99.90;;;;;;4956555;29;20209;-72
2020/12/01 16:39:36;;;;;;;1999.90;999.90;;;3.50;99.90;;;;;;4956533;29;20272;-74
2020/12/01 16:42:11;;;;;;;1999.90;999.90;;;3.50;99.90;;;;;;4956735;29;20308;-73
2020/12/01 16:44:44;;;;;;;1999.90;999.90;;;3.50;99.90;;;;;;4956706;29;20263;-73
2020/12/01 16:47:34;;;;;;;1999.90;999.90;;;3.50;99.90;;;;;;4956480;29;20268;-74
2020/12/01 16:50:28;;;;;;;1999.90;999.90;;;3.60;99.90;;;;;;4956441;29;20745;-73
2020/12/01 16:53:20;;;;;;;1999.90;999.90;;;3.50;99.90;;;;;;4947668;29;20213;-73
2020/12/01 16:55:57;;;;;;;1999.90;999.90;;;3.60;99.90;;;;;;4956718;29;20261;-73
2020/12/01 16:58:37;;;;;;;1999.90;999.90;;;3.60;99.90;;;;;;4956412;29;20264;-74
2020/12/01 17:01:15;;;;;;;1999.90;999.90;;;3.60;99.90;;;;;;4956276;29;20232;-74
2020/12/01 17:04:14;;;;;;;1999.90;999.90;;;3.50;99.90;;;;;;4956572;29;20205;-73
2020/12/01 17:07:12;;;;;;;1999.90;999.90;;;3.40;99.90;;;;;;4955719;28;20237;-73
2020/12/01 17:09:45;;;;;;;1999.90;999.90;;;3.40;99.90;;;;;;4955007;29;20260;-74
2020/12/01 17:12:34;;;;;;;1999.90;999.90;;;3.40;99.90;;;;;;4956184;29;20285;-73
2020/12/01 17:15:16;;;;;;;1999.90;999.90;;;3.30;99.90;;;;;;4940442;29;20205;-74
2020/12/01 17:17:52;;;;;;;1999.90;999.90;;;3.40;99.90;;;;;;4956148;29;20260;-74
2020/12/01 17:20:19;;;;;;;1999.90;999.90;;;3.40;99.90;;;;;;4956275;29;20674;-74
2020/12/01 17:22:48;;;;;;;1999.90;999.90;;;3.40;99.90;;;;;;4956125;29;20212;-74
2020/12/01 17:25:18;;;;;;;1999.90;999.90;;;3.40;99.90;;;;;;4956091;29;20233;-75
2020/12/01 17:27:48;;;;;;;1999.90;999.90;;;3.40;99.90;;;;;;4956228;29;20213;-74
2020/12/01 17:30:32;;;;;;;1999.90;999.90;;;3.50;99.90;;;;;;4956353;29;20249;-74
2020/12/01 17:33:12;;;;;;;1999.90;999.90;;;3.50;99.90;;;;;;4956563;29;20213;-75
2020/12/01 17:35:48;;;;;;;1999.90;999.90;;;3.50;99.90;;;;;;4956847;29;20216;-75
2020/12/01 17:38:21;;;;;;;1999.90;999.90;;;3.50;99.90;;;;;;4956417;29;20205;-78
2020/12/01 17:40:59;;;;;;;1999.90;999.90;;;3.50;99.90;;;;;;4957034;29;20229;-76
2020/12/01 17:43:38;;;;;;;1999.90;999.90;;;3.40;99.90;;;;;;4956745;29;20205;-78
2020/12/01 17:46:12;;;;;;;1999.90;999.90;;;3.40;99.90;;;;;;4951660;28;20240;-75
2020/12/01 17:48:44;;;;;;;1999.90;999.90;;;3.40;99.90;;;;;;4954686;29;20229;-78
2020/12/01 17:51:19;;;;;;;1999.90;999.90;;;3.40;99.90;;;;;;4959836;29;20276;-78
2020/12/01 17:53:57;;;;;;;1999.90;999.90;;;3.40;99.90;;;;;;4957443;29;20613;-78
2020/12/01 17:56:25;;;;;;;1999.90;999.90;;;3.30;99.90;;;;;;4961080;29;20237;-77
2020/12/01 17:58:52;;;;;;;1999.90;999.90;;;3.30;99.90;;;;;;4959598;29;20213;-77
2020/12/01 18:01:20;;;;;;;1999.90;999.90;;;3.30;99.90;;;;;;4959609;29;20233;-76
2020/12/01 18:03:53;;;;;;;1999.90;999.90;;;3.30;99.90;;;;;;4959099;29;20201;-77
2020/12/01 18:06:19;;;;;;;1999.90;999.90;;;3.20;99.90;;;;;;4959034;29;20240;-75
2020/12/01 18:08:55;;;;;;;1999.90;999.90;;;3.20;99.90;;;;;;4956968;29;20617;-77
2020/12/01 18:11:33;;;;;;;1999.90;999.90;;;3.20;99.90;;;;;;4957049;29;20221;-78
2020/12/01 18:14:22;;;;;;;1999.90;999.90;;;3.30;99.90;;;;;;4959202;29;20205;-77
2020/12/01 18:17:03;;;;;;;1999.90;999.90;;;3.30;99.90;;;;;;4960276;28;20242;-79
2020/12/01 18:19:44;;;;;;;1999.90;999.90;;;3.30;99.90;;;;;;4959824;28;20213;-77
2020/12/01 18:22:17;;;;;;;1999.90;999.90;;;3.20;99.90;;;;;;4959180;29;20641;-77
2020/12/01 18:24:55;;;;;;;1999.90;999.90;;;3.20;99.90;;;;;;4960179;29;20225;-77
2020/12/01 18:27:29;;;;;;;1999.90;999.90;;;3.20;99.90;;;;;;4960564;29;20252;-78
2020/12/01 18:30:06;;;;;;;1999.90;999.90;;;3.20;99.90;;;;;;4960189;29;20228;-78
2020/12/01 18:32:41;;;;;;;1999.90;999.90;;;3.20;99.90;;;;;;4960202;29;20225;-78
2020/12/01 18:35:17;;;;;;;1999.90;999.90;;;3.20;99.90;;;;;;4959904;29;20205;-78
2020/12/01 18:38:01;;;;;;;1999.90;999.90;;;3.20;99.90;;;;;;4960076;29;20217;-78
2020/12/01 18:40:31;;;;;;;1999.90;999.90;;;3.20;99.90;;;;;;4959892;29;20213;-78
2020/12/01 18:43:03;;;;;;;1999.90;999.90;;;3.10;99.90;;;;;;4957292;29;20206;-77
2020/12/01 18:45:33;;;;;;;1999.90;999.90;;;3.10;99.90;;;;;;4959249;29;20229;-79
2020/12/01 18:48:01;;;;;;;1999.90;999.90;;;3.10;99.90;;;;;;4959899;29;20206;-78
2020/12/01 18:50:28;;;;;;;1999.90;999.90;;;3.10;99.90;;;;;;4956144;29;20193;-76
2020/12/01 18:53:04;;;;;;;1999.90;999.90;;;3.00;99.90;;;;;;4954423;29;20564;-77
2020/12/01 18:55:31;;;;;;;1999.90;999.90;;;3.00;99.90;;;;;;4953933;29;20201;-78
2020/12/01 18:57:59;;;;;;;1999.90;999.90;;;3.10;99.90;;;;;;4959324;29;20349;-78
2020/12/01 19:00:26;;;;;;;1999.90;999.90;;;3.00;99.90;;;;;;4957941;29;20737;-81
2020/12/01 19:02:52;;;;;;;1999.90;999.90;;;3.10;99.90;;;;;;4947284;29;20288;-77
2020/12/01 19:05:19;;;;;;;1999.90;999.90;;;3.10;99.90;;;;;;4935339;29;20250;-76
2020/12/01 19:07:47;;;;;;;1999.90;999.90;;;3.10;99.90;;;;;;4950192;29;20201;-77
2020/12/01 19:10:13;;;;;;;1999.90;999.90;;;3.00;99.90;;;;;;4955321;29;20213;-78
2020/12/01 19:12:40;;;;;;;1999.90;999.90;;;3.10;99.90;;;;;;4955614;29;20205;-74
2020/12/01 19:15:08;;;;;;;1999.90;999.90;;;3.10;99.90;;;;;;4953038;29;20264;-74
2020/12/01 19:17:35;;;;;;;1999.90;999.90;;;3.10;99.90;;;;;;4958874;28;20236;-75
2020/12/01 19:20:03;;;;;;;1999.90;999.90;;;3.20;99.90;;;;;;4955733;28;20209;-76
2020/12/01 19:22:29;;;;;;;1999.90;999.90;;;3.20;99.90;;;;;;4954430;29;20221;-76
2020/12/01 19:24:56;;;;;;;1999.90;999.90;;;3.30;99.90;;;;;;4954849;29;20257;-76
2020/12/01 19:27:23;;;;;;;1999.90;999.90;;;3.20;99.90;;;;;;4953636;29;20200;-75
2020/12/01 19:29:50;;;;;;;1999.90;999.90;;;3.20;99.90;;;;;;4953495;28;20206;-77
2020/12/01 19:32:17;;;;;;;1999.90;999.90;;;3.10;99.90;;;;;;4953528;29;20225;-76
2020/12/01 19:34:45;;;;;;;1999.90;999.90;;;3.10;99.90;;;;;;4954278;29;20210;-76
2020/12/01 19:37:12;;;;;;;1999.90;999.90;;;3.10;99.90;;;;;;4953625;29;20256;-76
2020/12/01 19:39:39;;;;;;;1999.90;999.90;;;3.20;99.90;;;;;;4953754;29;20205;-78
2020/12/01 19:42:07;;;;;;;1999.90;999.90;;;3.20;99.90;;;;;;4955623;29;20221;-79
2020/12/01 19:44:33;;;;;;;1999.90;999.90;;;3.20;99.90;;;;;;4954128;29;20255;-77
2020/12/01 19:47:00;;;;;;;1999.90;999.90;;;3.20;99.90;;;;;;4952835;29;20617;-76
2020/12/01 19:49:28;;;;;;;1999.90;999.90;;;3.10;99.90;;;;;;4953382;29;20213;-77
2020/12/01 19:51:55;;;;;;;1999.90;999.90;;;3.10;99.90;;;;;;4954245;29;20229;-76
2020/12/01 19:54:22;;;;;;;1999.90;999.90;;;3.10;99.90;;;;;;4953535;29;20237;-77
2020/12/01 19:56:49;;;;;;;1999.90;999.90;;;3.10;99.90;;;;;;4953418;29;20208;-75
2020/12/01 19:59:15;;;;;;;1999.90;999.90;;;3.00;99.90;;;;;;4953215;29;20201;-73
2020/12/01 20:01:42;;;;;;;1999.90;999.90;;;3.00;99.90;;;;;;4952197;29;20284;-72
2020/12/01 20:04:09;;;;;;;1999.90;999.90;;;2.90;99.90;;;;;;4955551;29;20628;-81
2020/12/01 20:06:41;;;;;;;1999.90;999.90;;;3.00;99.90;;;;;;4958265;29;20216;-78
2020/12/01 20:09:08;;;;;;;1999.90;999.90;;;2.80;99.90;;;;;;4957839;29;20228;-75
2020/12/01 20:11:35;;;;;;;1999.90;999.90;;;2.80;99.90;;;;;;4953456;29;20276;-75
2020/12/01 20:14:03;;;;;;;1999.90;999.90;;;2.80;99.90;;;;;;4952966;29;20210;-74
2020/12/01 20:16:31;;;;;;;1999.90;999.90;;;2.70;99.90;;;;;;4953376;29;20202;-75
2020/12/01 20:18:58;;;;;;;1999.90;999.90;;;2.70;99.90;;;;;;4953097;29;20264;-75
2020/12/01 20:21:25;;;;;;;1999.90;999.90;;;2.70;99.90;;;;;;4953162;29;20288;-77
2020/12/01 20:23:53;;;;;;;1999.90;999.90;;;2.70;99.90;;;;;;4953257;29;20635;-75
2020/12/01 20:26:20;;;;;;;1999.90;999.90;;;2.80;99.90;;;;;;4952952;29;20618;-75
2020/12/01 20:28:47;;;;;;;1999.90;999.90;;;2.70;99.90;;;;;;4953322;29;20220;-75
2020/12/01 20:31:15;;;;;;;1999.90;999.90;;;2.70;99.90;;;;;;4953491;29;20229;-75
2020/12/01 20:33:42;;;;;;;1999.90;999.90;;;2.70;99.90;;;;;;4953571;29;20237;-75
2020/12/01 20:36:42;;;;;;;1999.90;999.90;;;2.60;99.90;;;;;;4953058;29;20205;-75
2020/12/01 20:39:53;;;;;;;1999.90;999.90;;;2.50;99.90;;;;;;4953465;29;20584;-77
2020/12/01 20:42:21;;;;;;;1999.90;999.90;;;2.60;99.90;;;;;;4953895;28;20229;-75
2020/12/01 20:44:51;;;;;;;1999.90;999.90;;;2.60;99.90;;;;;;4956671;29;20209;-75
2020/12/01 20:47:18;;;;;;;1999.90;999.90;;;2.60;99.90;;;;;;4956883;29;20205;-74
2020/12/01 20:49:46;;;;;;;1999.90;999.90;;;2.60;99.90;;;;;;4956666;29;20580;-75
2020/12/01 20:52:13;;;;;;;1999.90;999.90;;;2.50;99.90;;;;;;4956546;29;20245;-76
2020/12/01 20:54:40;;;;;;;1999.90;999.90;;;2.60;99.90;;;;;;4956697;29;20625;-75
2020/12/01 20:57:09;;;;;;;1999.90;999.90;;;2.50;99.90;;;;;;4956235;29;20241;-74
2020/12/01 20:59:36;;;;;;;1999.90;999.90;;;2.40;99.90;;;;;;4956276;29;20273;-75
2020/12/01 21:02:03;;;;;;;1999.90;999.90;;;2.40;99.90;;;;;;4956017;29;20225;-75
2020/12/01 21:04:30;;;;;;;1999.90;999.90;;;2.40;99.90;;;;;;4956303;29;20208;-75
2020/12/01 21:06:57;;;;;;;1999.90;999.90;;;2.40;99.90;;;;;;4956264;29;20202;-74
2020/12/01 21:09:24;;;;;;;1999.90;999.90;;;2.40;99.90;;;;;;4956412;29;20205;-76
2020/12/01 21:11:56;;;;;;;1999.90;999.90;;;2.30;99.90;;;;;;4956292;29;20225;-76
2020/12/01 21:14:27;;;;;;;1999.90;999.90;;;2.20;99.90;;;;;;4956121;29;20202;-75
2020/12/01 21:16:58;;;;;;;1999.90;999.90;;;2.20;99.90;;;;;;4955921;29;20209;-75
2020/12/01 21:19:26;;;;;;;1999.90;999.90;;;2.20;99.90;;;;;;4956222;29;20205;-75
2020/12/01 21:21:58;;;;;;;1999.90;999.90;;;2.20;99.90;;;;;;4955684;29;20261;-75
2020/12/01 21:24:25;;;;;;;1999.90;999.90;;;2.10;99.90;;;;;;4955999;29;20279;-75
2020/12/01 21:26:53;;;;;;;1999.90;999.90;;;2.20;99.90;;;;;;4955509;29;20253;-76
2020/12/01 21:29:28;;;;;;;1999.90;999.90;;;2.20;99.90;;;;;;4955046;29;20783;-74
2020/12/01 21:32:02;;;;;;;1999.90;999.90;;;2.10;99.90;;;;;;4953917;29;20292;-74
2020/12/01 21:34:41;;;;;;;1999.90;999.90;;;2.10;99.90;;;;;;4954245;29;20257;-76
2020/12/01 21:37:10;;;;;;;1999.90;999.90;;;2.10;99.90;;;;;;4954493;29;20205;-76
2020/12/01 21:39:37;;;;;;;1999.90;999.90;;;2.10;99.90;;;;;;4954642;29;20609;-75
2020/12/01 21:42:12;;;;;;;1999.90;999.90;;;2.10;99.90;;;;;;4954025;29;20691;-75
2020/12/01 21:44:48;;;;;;;1999.90;999.90;;;2.10;99.90;;;;;;4954545;29;20224;-75
2020/12/01 21:47:18;;;;;;;1999.90;999.90;;;2.00;99.90;;;;;;4955435;29;20216;-74
2020/12/01 21:49:47;;;;;;;1999.90;999.90;;;2.10;99.90;;;;;;4955794;29;20288;-75
2020/12/01 21:52:57;;;;;;;1999.90;999.90;;;2.00;99.90;;;;;;4955772;29;20280;-75
2020/12/01 21:55:45;;;;;;;1999.90;999.90;;;2.00;99.90;;;;;;4876006;29;20271;-75
2020/12/01 21:58:31;;;;;;;1999.90;999.90;;;2.00;99.90;;;;;;4877713;29;20216;-76
